WXM80 ListenWXM80 Stop

You find our weather info also at:

UK Metoffice

WeatherCloud

Weather Underground

Northeastern Weather Network

AWEKAS

Citizen Weather Observer Program (CWOP)

HAMweather, WeatherForYou, PWS Weather


Weather Underground History page Text

Daily Summary for March 2, 2018 Units:  English    Metric   Both
« Previous Day
Next Day »
Daily Weekly Monthly Yearly Custom
  High: Low: Average:
Temperature: 41.8 °F 36.8 °F 38.6 °F
Dew Point: 40.3 °F 33.1 °F 36.9 °F
Humidity: 97 % 84 % 94 %
Wind Speed: 19.2 mph 3.0 mph 10.4 mph
Wind Gust: 38.0 mph - -
Wind:- - SSE
Pressure: 29.47 in 28.93 in -
Precipitation: 2.67 in    
Historical Graphs
 
 
Tabular Data for March 2, 2018
Time Temperature Dew Point Pressure Wind Wind Speed Wind Gust Humidity Rainfall Rate (Hourly)
00:02 41.8 °F 40.2 °F 29.29 in East 10.8 mph 13.8 mph 94 % 0.05 in
00:07 41.8 °F 40.2 °F 29.28 in East 10.5 mph 17.3 mph 94 % 0.05 in
00:12 41.7 °F 40.1 °F 29.28 in East 11.9 mph 15.0 mph 94 % 0.04 in
00:17 41.7 °F 40.1 °F 29.27 in East 12.5 mph 16.0 mph 94 % 0.04 in
00:22 41.6 °F 40.0 °F 29.27 in East 13.3 mph 17.3 mph 94 % 0.03 in
00:27 41.6 °F 40.0 °F 29.26 in East 12.9 mph 15.0 mph 94 % 0.04 in
00:32 41.6 °F 40.0 °F 29.26 in East 14.3 mph 16.1 mph 94 % 0.03 in
00:37 41.6 °F 40.3 °F 29.26 in ENE 12.7 mph 16.1 mph 95 % 0.04 in
00:42 41.6 °F 40.3 °F 29.25 in East 12.1 mph 15.0 mph 95 % 0.04 in
00:47 41.4 °F 40.1 °F 29.24 in ENE 11.9 mph 15.0 mph 95 % 0.04 in
00:52 41.2 °F 39.9 °F 29.24 in East 11.7 mph 13.8 mph 95 % 0.05 in
00:57 41.1 °F 39.8 °F 29.24 in East 9.8 mph 11.5 mph 95 % 0.05 in
01:02 41.0 °F 39.7 °F 29.23 in ENE 10.6 mph 18.4 mph 95 % 0.06 in
01:08 40.9 °F 39.6 °F 29.23 in ENE 9.2 mph 11.5 mph 95 % 0.07 in
01:13 40.9 °F 39.6 °F 29.23 in ENE 8.4 mph 13.0 mph 95 % 0.08 in
01:18 40.8 °F 39.5 °F 29.22 in East 9.9 mph 12.7 mph 95 % 0.10 in
01:23 40.7 °F 39.4 °F 29.21 in ENE 7.2 mph 12.7 mph 95 % 0.11 in
01:28 40.7 °F 39.6 °F 29.21 in East 10.3 mph 15.0 mph 96 % 0.12 in
01:33 40.9 °F 39.8 °F 29.20 in East 8.7 mph 13.8 mph 96 % 0.14 in
01:38 40.9 °F 39.8 °F 29.20 in ENE 10.0 mph 14.0 mph 96 % 0.15 in
01:43 40.9 °F 39.8 °F 29.19 in ENE 12.0 mph 16.1 mph 96 % 0.17 in
01:48 40.9 °F 39.8 °F 29.17 in East 11.5 mph 19.6 mph 96 % 0.17 in
01:53 40.9 °F 39.8 °F 29.17 in ENE 11.0 mph 16.1 mph 96 % 0.18 in
01:58 40.8 °F 39.7 °F 29.17 in ENE 8.0 mph 12.7 mph 96 % 0.20 in
02:03 40.8 °F 39.7 °F 29.17 in ENE 10.4 mph 14.0 mph 96 % 0.20 in
02:08 40.8 °F 39.7 °F 29.16 in ENE 9.1 mph 11.5 mph 96 % 0.20 in
02:13 40.8 °F 39.7 °F 29.16 in NE 8.0 mph 13.8 mph 96 % 0.20 in
02:18 40.8 °F 39.7 °F 29.15 in NE 9.7 mph 12.7 mph 96 % 0.20 in
02:23 40.8 °F 39.7 °F 29.14 in ENE 8.8 mph 13.0 mph 96 % 0.22 in
02:28 40.7 °F 39.6 °F 29.14 in ENE 8.3 mph 13.8 mph 96 % 0.22 in
02:33 40.8 °F 39.7 °F 29.13 in ENE 7.7 mph 13.8 mph 96 % 0.22 in
02:38 40.7 °F 39.6 °F 29.13 in NE 8.8 mph 13.8 mph 96 % 0.22 in
02:43 40.7 °F 39.6 °F 29.12 in ENE 10.0 mph 12.7 mph 96 % 0.21 in
02:48 40.6 °F 39.5 °F 29.13 in NE 9.8 mph 12.7 mph 96 % 0.21 in
02:53 40.6 °F 39.5 °F 29.12 in East 8.3 mph 12.7 mph 96 % 0.21 in
02:54 40.6 °F 39.5 °F 29.12 in ENE 8.6 mph 11.5 mph 96 % 0.21 in
02:59 40.6 °F 39.8 °F 29.12 in ENE 9.2 mph 12.7 mph 97 % 0.21 in
03:04 40.6 °F 39.8 °F 29.11 in ENE 8.9 mph 11.5 mph 97 % 0.21 in
03:09 40.6 °F 39.8 °F 29.11 in East 7.5 mph 10.0 mph 97 % 0.21 in
03:14 40.6 °F 39.8 °F 29.11 in NE 8.6 mph 11.5 mph 97 % 0.23 in
03:19 40.6 °F 39.8 °F 29.11 in ENE 4.8 mph 8.1 mph 97 % 0.22 in
03:24 40.6 °F 39.8 °F 29.11 in NNE 3.0 mph 4.0 mph 97 % 0.22 in
03:29 40.6 °F 39.8 °F 29.11 in NE 3.9 mph 5.8 mph 97 % 0.21 in
03:34 40.6 °F 39.8 °F 29.10 in NE 4.5 mph 8.1 mph 97 % 0.22 in
03:39 40.5 °F 39.7 °F 29.10 in NNE 8.6 mph 12.7 mph 97 % 0.22 in
03:44 40.5 °F 39.4 °F 29.09 in NNE 4.9 mph 10.4 mph 96 % 0.25 in
03:49 40.4 °F 39.4 °F 29.09 in NE 5.9 mph 12.7 mph 96 % 0.26 in
03:54 40.3 °F 39.3 °F 29.09 in NNE 8.7 mph 11.5 mph 96 % 0.28 in
03:59 40.2 °F 39.2 °F 29.08 in NNE 9.4 mph 12.7 mph 96 % 0.29 in
04:05 40.1 °F 39.3 °F 29.08 in NE 9.5 mph 12.7 mph 97 % 0.31 in
04:10 40.1 °F 39.3 °F 29.07 in NNE 9.9 mph 12.7 mph 97 % 0.32 in
04:15 40.0 °F 39.2 °F 29.06 in NNE 12.3 mph 17.0 mph 97 % 0.30 in
04:20 39.8 °F 38.8 °F 29.06 in NNE 7.9 mph 14.0 mph 96 % 0.30 in
04:25 39.8 °F 38.8 °F 29.06 in NE 7.9 mph 12.0 mph 96 % 0.29 in
04:30 39.7 °F 38.7 °F 29.07 in NNW 6.5 mph 12.7 mph 96 % 0.28 in
04:35 39.7 °F 38.9 °F 29.05 in NNE 7.3 mph 11.5 mph 97 % 0.28 in
04:40 39.7 °F 38.9 °F 29.04 in NNE 8.4 mph 12.0 mph 97 % 0.26 in
04:45 39.7 °F 38.9 °F 29.04 in NNE 8.3 mph 13.0 mph 97 % 0.24 in
04:50 39.6 °F 38.8 °F 29.03 in NNE 9.7 mph 15.0 mph 97 % 0.22 in
04:55 39.6 °F 38.8 °F 29.04 in NNE 7.6 mph 11.5 mph 97 % 0.19 in
05:00 39.5 °F 38.7 °F 29.04 in NNE 11.5 mph 16.1 mph 97 % 0.17 in
05:05 39.4 °F 38.6 °F 29.03 in NE 8.6 mph 12.7 mph 97 % 0.16 in
05:10 39.3 °F 38.5 °F 29.03 in North 5.0 mph 11.5 mph 97 % 0.15 in
05:15 39.3 °F 38.5 °F 29.03 in NNE 6.0 mph 9.2 mph 97 % 0.17 in
05:20 39.2 °F 38.4 °F 29.03 in NNE 7.4 mph 11.5 mph 97 % 0.18 in
05:25 39.1 °F 38.3 °F 29.03 in NNE 9.7 mph 13.8 mph 97 % 0.20 in
05:30 39.0 °F 38.2 °F 29.02 in NE 9.6 mph 11.5 mph 97 % 0.21 in
05:35 38.9 °F 38.1 °F 29.01 in NNE 12.6 mph 16.1 mph 97 % 0.22 in
05:41 38.8 °F 38.0 °F 29.01 in NNE 10.1 mph 15.0 mph 97 % 0.23 in
05:46 38.8 °F 37.7 °F 29.01 in NNE 9.0 mph 17.0 mph 96 % 0.01 in
05:51 38.7 °F 37.7 °F 29.01 in NNE 8.0 mph 17.0 mph 96 % 0.01 in
05:56 38.6 °F 37.6 °F 29.01 in NNE 10.0 mph 18.0 mph 96 % 0.00 in
06:01 38.5 °F 37.5 °F 29.01 in NNE 11.4 mph 16.0 mph 96 % 0.28 in
06:06 38.5 °F 37.7 °F 29.01 in North 10.0 mph 18.4 mph 97 % 0.27 in
06:11 38.4 °F 37.6 °F 29.02 in NNE 9.0 mph 16.0 mph 97 % 0.00 in
06:16 38.3 °F 37.6 °F 29.02 in NNE 8.0 mph 16.0 mph 97 % 0.00 in
06:21 38.3 °F 37.5 °F 29.02 in NNE 8.0 mph 16.0 mph 97 % 0.00 in
06:26 38.2 °F 37.4 °F 29.02 in NNE 12.0 mph 17.0 mph 97 % 0.00 in
06:31 38.2 °F 37.2 °F 29.02 in NNE 7.0 mph 12.0 mph 96 % 0.01 in
06:36 38.1 °F 37.1 °F 29.02 in NNE 9.0 mph 14.0 mph 96 % 0.01 in
06:41 38.1 °F 37.1 °F 29.02 in North 8.0 mph 15.0 mph 96 % 0.00 in
06:46 38.0 °F 37.0 °F 29.02 in NNE 8.0 mph 14.0 mph 96 % 0.00 in
06:51 38.0 °F 37.0 °F 29.02 in NNE 7.0 mph 13.0 mph 96 % 0.01 in
06:56 37.9 °F 36.9 °F 29.02 in NNE 9.0 mph 17.0 mph 96 % 0.00 in
07:01 37.9 °F 37.1 °F 29.02 in North 7.3 mph 11.5 mph 97 % 0.17 in
07:06 37.8 °F 37.0 °F 29.01 in NNE 8.0 mph 11.5 mph 97 % 0.16 in
07:11 37.8 °F 37.0 °F 29.01 in NNW 7.3 mph 12.7 mph 97 % 0.18 in
07:16 37.8 °F 37.0 °F 29.00 in NE 7.4 mph 10.4 mph 97 % 0.19 in
07:21 37.8 °F 37.0 °F 29.00 in ENE 8.4 mph 15.0 mph 97 % 0.22 in
07:26 37.8 °F 37.0 °F 28.98 in North 9.2 mph 16.0 mph 97 % 0.24 in
07:31 37.7 °F 36.9 °F 28.98 in North 10.2 mph 15.0 mph 97 % 0.25 in
07:36 37.7 °F 36.9 °F 28.98 in NNE 9.2 mph 19.6 mph 97 % 0.26 in
07:41 37.7 °F 36.9 °F 28.98 in NE 7.2 mph 11.5 mph 97 % 0.28 in
07:46 37.7 °F 36.9 °F 28.98 in North 9.2 mph 13.8 mph 97 % 0.29 in
07:52 37.7 °F 36.9 °F 28.98 in North 10.3 mph 13.8 mph 97 % 0.29 in
07:57 37.8 °F 37.0 °F 28.98 in NE 7.9 mph 15.0 mph 97 % 0.31 in
08:02 37.8 °F 37.0 °F 28.97 in NNE 9.0 mph 17.3 mph 97 % 0.31 in
08:07 37.9 °F 37.1 °F 28.97 in NNE 11.0 mph 17.3 mph 97 % 0.31 in
08:12 37.9 °F 37.1 °F 28.97 in North 7.8 mph 16.1 mph 97 % 0.30 in
08:17 37.9 °F 37.1 °F 28.97 in NNE 7.3 mph 13.8 mph 97 % 0.28 in
08:22 38.0 °F 37.2 °F 28.96 in North 8.6 mph 12.7 mph 97 % 0.27 in
08:27 38.0 °F 37.2 °F 28.97 in NE 10.0 mph 18.4 mph 97 % 0.25 in
08:32 38.1 °F 37.3 °F 28.96 in NNE 8.2 mph 13.8 mph 97 % 0.23 in
08:37 38.1 °F 37.3 °F 28.96 in NNW 6.3 mph 8.1 mph 97 % 0.21 in
08:42 38.2 °F 37.4 °F 28.96 in NNE 7.2 mph 13.8 mph 97 % 0.20 in
08:47 38.2 °F 37.4 °F 28.96 in North 6.7 mph 11.5 mph 97 % 0.19 in
08:52 38.3 °F 37.5 °F 28.96 in NNE 8.3 mph 11.5 mph 97 % 0.18 in
08:57 38.3 °F 37.5 °F 28.96 in North 5.9 mph 11.5 mph 97 % 0.17 in
09:02 38.2 °F 37.4 °F 28.96 in NNE 7.5 mph 11.5 mph 97 % 0.16 in
09:07 38.3 °F 37.5 °F 28.96 in NE 8.3 mph 11.5 mph 97 % 0.16 in
09:12 38.4 °F 37.6 °F 28.96 in NNE 8.9 mph 13.8 mph 97 % 0.15 in
09:17 38.4 °F 37.6 °F 28.96 in NNE 5.2 mph 11.5 mph 97 % 0.16 in
09:23 38.5 °F 37.7 °F 28.96 in NNW 4.7 mph 11.5 mph 97 % 0.16 in
09:28 38.6 °F 37.8 °F 28.96 in North 4.8 mph 11.5 mph 97 % 0.17 in
09:33 38.7 °F 37.9 °F 28.96 in NNW 4.7 mph 11.5 mph 97 % 0.18 in
09:38 38.8 °F 38.0 °F 28.96 in NNW 5.0 mph 16.1 mph 97 % 0.18 in
09:43 38.9 °F 38.1 °F 28.96 in NNE 9.7 mph 13.8 mph 97 % 0.19 in
09:48 39.0 °F 38.2 °F 28.95 in North 4.0 mph 6.9 mph 97 % 0.20 in
09:53 39.0 °F 38.2 °F 28.95 in NNW 6.7 mph 10.4 mph 97 % 0.21 in
09:58 39.1 °F 38.3 °F 28.95 in North 5.9 mph 11.5 mph 97 % 0.22 in
10:03 39.2 °F 38.4 °F 28.95 in NNW 3.2 mph 10.4 mph 97 % 0.23 in
10:08 39.1 °F 38.3 °F 28.95 in NNE 6.4 mph 10.0 mph 97 % 0.23 in
10:13 39.1 °F 38.3 °F 28.95 in North 7.9 mph 13.8 mph 97 % 0.22 in
10:18 39.2 °F 38.4 °F 28.94 in NNW 6.5 mph 14.0 mph 97 % 0.23 in
10:23 39.2 °F 38.4 °F 28.95 in NW 9.0 mph 15.0 mph 97 % 0.23 in
10:28 39.1 °F 38.3 °F 28.95 in NW 4.2 mph 8.1 mph 97 % 0.23 in
10:33 38.9 °F 38.1 °F 28.95 in NNW 5.9 mph 11.5 mph 97 % 0.23 in
10:38 38.8 °F 38.0 °F 28.95 in NNW 3.2 mph 6.9 mph 97 % 0.24 in
10:43 38.8 °F 38.0 °F 28.95 in NNW 4.8 mph 6.9 mph 97 % 0.25 in
10:48 38.8 °F 38.0 °F 28.95 in North 4.8 mph 7.0 mph 97 % 0.25 in
10:53 38.9 °F 38.1 °F 28.96 in NNW 4.1 mph 7.0 mph 97 % 0.26 in
10:58 38.8 °F 38.0 °F 28.96 in NW 6.5 mph 11.5 mph 97 % 0.26 in
11:03 38.7 °F 37.9 °F 28.97 in NW 6.7 mph 12.0 mph 97 % 0.26 in
11:09 38.6 °F 37.8 °F 28.96 in NNW 8.3 mph 19.6 mph 97 % 0.26 in
11:14 38.5 °F 37.7 °F 28.96 in NW 8.0 mph 15.0 mph 97 % 0.27 in
11:19 38.4 °F 37.6 °F 28.96 in NW 7.1 mph 13.8 mph 97 % 0.27 in
11:24 38.3 °F 37.5 °F 28.96 in North 8.9 mph 19.6 mph 97 % 0.27 in
11:29 38.2 °F 37.2 °F 28.96 in WNW 6.1 mph 11.5 mph 96 % 0.26 in
11:34 38.1 °F 37.1 °F 28.96 in NNW 7.1 mph 15.0 mph 96 % 0.26 in
11:39 38.1 °F 37.1 °F 28.95 in North 9.5 mph 18.4 mph 96 % 0.26 in
11:44 37.9 °F 36.9 °F 28.95 in NNW 9.0 mph 19.6 mph 96 % 0.24 in
11:49 37.7 °F 36.7 °F 28.94 in North 7.3 mph 11.5 mph 96 % 0.22 in
11:54 37.6 °F 36.6 °F 28.95 in North 9.1 mph 13.8 mph 96 % 0.22 in
11:59 37.7 °F 36.7 °F 28.95 in NNE 10.3 mph 20.7 mph 96 % 0.20 in
12:04 37.7 °F 36.7 °F 28.94 in NW 11.0 mph 18.4 mph 96 % 0.19 in
12:09 37.6 °F 36.6 °F 28.94 in NNE 13.5 mph 26.5 mph 96 % 0.17 in
12:14 37.5 °F 36.5 °F 28.94 in NE 13.7 mph 19.6 mph 96 % 0.15 in
12:19 37.4 °F 36.4 °F 28.93 in NNW 12.8 mph 19.6 mph 96 % 0.14 in
12:24 37.3 °F 36.3 °F 28.93 in NNW 13.1 mph 19.6 mph 96 % 0.12 in
12:29 37.4 °F 36.4 °F 28.93 in North 11.2 mph 13.8 mph 96 % 0.11 in
12:34 37.4 °F 36.4 °F 28.93 in North 14.7 mph 20.7 mph 96 % 0.10 in
12:39 37.5 °F 36.5 °F 28.93 in NNE 15.5 mph 19.6 mph 96 % 0.08 in
12:45 37.5 °F 36.5 °F 28.93 in NW 15.0 mph 21.9 mph 96 % 0.07 in
12:50 37.5 °F 36.5 °F 28.93 in NNW 17.0 mph 31.0 mph 96 % 0.07 in
12:55 37.4 °F 36.4 °F 28.93 in NNW 13.9 mph 29.9 mph 96 % 0.05 in
13:00 37.4 °F 36.4 °F 28.93 in NNW 16.9 mph 38.0 mph 96 % 0.04 in
13:05 37.2 °F 36.2 °F 28.94 in NNW 15.7 mph 35.7 mph 96 % 0.05 in
13:10 37.2 °F 36.2 °F 28.94 in NE 16.4 mph 31.1 mph 96 % 0.04 in
13:15 37.2 °F 36.2 °F 28.94 in NNE 17.8 mph 26.5 mph 96 % 0.05 in
13:20 37.3 °F 36.3 °F 28.94 in North 13.5 mph 23.0 mph 96 % 0.04 in
13:25 37.3 °F 36.3 °F 28.94 in North 12.4 mph 32.0 mph 96 % 0.05 in
13:30 37.4 °F 36.1 °F 28.94 in NNW 15.5 mph 27.6 mph 95 % 0.04 in
13:35 37.6 °F 36.6 °F 28.95 in NNE 16.3 mph 32.0 mph 96 % 0.05 in
13:40 37.7 °F 36.4 °F 28.95 in North 17.8 mph 26.5 mph 95 % 0.05 in
13:45 37.7 °F 36.4 °F 28.94 in NNE 15.5 mph 28.0 mph 95 % 0.05 in
13:50 37.8 °F 36.5 °F 28.94 in NE 13.9 mph 28.0 mph 95 % 0.04 in
13:55 37.8 °F 36.5 °F 28.95 in NNE 13.7 mph 23.0 mph 95 % 0.04 in
14:00 37.8 °F 36.5 °F 28.95 in North 15.7 mph 28.8 mph 95 % 0.04 in
14:05 37.8 °F 36.2 °F 28.96 in NNW 15.6 mph 25.3 mph 94 % 0.03 in
14:10 37.9 °F 36.3 °F 28.97 in NNE 13.7 mph 24.2 mph 94 % 0.03 in
14:15 38.0 °F 36.4 °F 28.97 in NNE 14.0 mph 18.4 mph 94 % 0.02 in
14:20 38.1 °F 36.5 °F 28.97 in North 11.7 mph 26.5 mph 94 % 0.03 in
14:26 38.1 °F 36.5 °F 28.97 in NNW 16.0 mph 36.0 mph 94 % 0.00 in
14:31 38.1 °F 36.5 °F 28.97 in North 16.0 mph 35.0 mph 94 % 0.00 in
14:36 38.0 °F 36.4 °F 28.98 in North 14.0 mph 28.0 mph 94 % 0.00 in
14:41 38.1 °F 36.5 °F 28.98 in North 14.0 mph 25.0 mph 94 % 0.00 in
14:46 38.1 °F 36.3 °F 28.99 in North 15.0 mph 29.0 mph 93 % 0.00 in
14:51 38.1 °F 36.3 °F 29.00 in North 18.0 mph 29.0 mph 93 % 0.00 in
14:56 38.2 °F 36.3 °F 29.00 in North 15.0 mph 27.0 mph 93 % 0.00 in
15:01 38.1 °F 36.3 °F 29.00 in NE 13.7 mph 21.9 mph 93 % 0.01 in
15:06 38.1 °F 36.3 °F 29.00 in NNE 12.8 mph 25.0 mph 93 % 0.01 in
15:11 38.1 °F 36.3 °F 29.00 in North 11.7 mph 27.6 mph 93 % 0.01 in
15:16 38.0 °F 36.2 °F 29.01 in NE 14.2 mph 26.5 mph 93 % 0.01 in
15:21 38.0 °F 36.2 °F 29.02 in NNW 12.8 mph 20.7 mph 93 % 0.00 in
15:26 38.0 °F 36.2 °F 29.02 in NW 15.3 mph 32.2 mph 93 % 0.00 in
15:31 38.0 °F 36.2 °F 29.03 in NNW 16.2 mph 25.3 mph 93 % 0.00 in
15:36 38.0 °F 36.2 °F 29.04 in North 15.4 mph 33.0 mph 93 % 0.01 in
15:41 38.0 °F 36.2 °F 29.04 in NNW 13.7 mph 28.8 mph 93 % 0.01 in
15:46 37.9 °F 36.1 °F 29.05 in North 15.9 mph 26.5 mph 93 % 0.01 in
15:52 37.9 °F 36.1 °F 29.05 in NE 16.5 mph 29.9 mph 93 % 0.01 in
15:57 37.9 °F 36.1 °F 29.05 in NNW 15.3 mph 22.0 mph 93 % 0.01 in
16:02 37.8 °F 36.0 °F 29.06 in NNW 17.5 mph 29.9 mph 93 % 0.01 in
16:07 37.7 °F 35.9 °F 29.06 in NNW 15.7 mph 22.0 mph 93 % 0.01 in
16:12 37.6 °F 35.8 °F 29.07 in North 19.2 mph 26.5 mph 93 % 0.01 in
16:17 37.6 °F 35.8 °F 29.08 in North 14.3 mph 19.6 mph 93 % 0.01 in
16:23 37.5 °F 35.7 °F 29.08 in North 16.0 mph 23.0 mph 93 % 0.01 in
16:28 37.5 °F 35.7 °F 29.08 in NNE 17.2 mph 26.5 mph 93 % 0.02 in
16:33 37.4 °F 35.6 °F 29.10 in NNE 14.1 mph 28.8 mph 93 % 0.01 in
16:38 37.4 °F 35.6 °F 29.10 in North 15.9 mph 27.6 mph 93 % 0.01 in
16:43 37.3 °F 35.5 °F 29.11 in NNE 10.9 mph 29.9 mph 93 % 0.01 in
16:48 37.3 °F 35.5 °F 29.12 in NW 13.3 mph 21.9 mph 93 % 0.01 in
16:53 37.2 °F 35.4 °F 29.12 in NNW 15.9 mph 25.3 mph 93 % 0.01 in
16:58 37.1 °F 35.3 °F 29.14 in NNE 13.9 mph 33.4 mph 93 % 0.01 in
17:03 37.0 °F 35.2 °F 29.14 in NE 17.0 mph 29.9 mph 93 % 0.02 in
17:08 36.9 °F 35.1 °F 29.14 in NW 13.7 mph 26.5 mph 93 % 0.02 in
17:13 36.8 °F 35.2 °F 29.15 in North 14.6 mph 25.3 mph 94 % 0.02 in
17:19 36.8 °F 35.2 °F 29.16 in NNE 13.8 mph 25.3 mph 94 % 0.03 in
17:24 36.8 °F 35.2 °F 29.16 in North 13.8 mph 27.6 mph 94 % 0.02 in
17:29 37.0 °F 35.4 °F 29.17 in NNW 13.1 mph 29.9 mph 94 % 0.02 in
17:34 37.1 °F 35.5 °F 29.17 in North 14.8 mph 28.0 mph 94 % 0.02 in
17:39 37.2 °F 35.6 °F 29.17 in NNW 10.5 mph 31.1 mph 94 % 0.02 in
17:44 37.3 °F 35.5 °F 29.19 in North 13.8 mph 25.3 mph 93 % 0.03 in
17:49 37.4 °F 35.6 °F 29.20 in NNW 14.2 mph 25.3 mph 93 % 0.03 in
17:54 37.4 °F 35.6 °F 29.21 in North 17.7 mph 32.2 mph 93 % 0.03 in
17:59 37.5 °F 35.7 °F 29.21 in NE 17.5 mph 26.5 mph 93 % 0.03 in
18:04 37.6 °F 35.5 °F 29.22 in North 11.6 mph 23.0 mph 92 % 0.02 in
18:09 37.7 °F 35.6 °F 29.23 in North 13.6 mph 20.0 mph 92 % 0.02 in
18:14 37.7 °F 35.6 °F 29.23 in NNW 11.2 mph 19.6 mph 92 % 0.01 in
18:19 37.8 °F 35.4 °F 29.24 in NNW 16.6 mph 26.5 mph 91 % 0.01 in
18:24 37.9 °F 35.5 °F 29.24 in NNW 10.9 mph 19.6 mph 91 % 0.01 in
18:29 37.9 °F 35.5 °F 29.25 in NNW 9.2 mph 20.7 mph 91 % 0.01 in
18:34 37.9 °F 35.5 °F 29.26 in NNW 12.3 mph 21.9 mph 91 % 0.01 in
18:39 37.9 °F 35.5 °F 29.27 in NNE 9.8 mph 15.0 mph 91 % 0.01 in
18:44 37.8 °F 35.4 °F 29.27 in NNE 9.5 mph 16.1 mph 91 % 0.00 in
18:49 37.7 °F 35.3 °F 29.28 in NNE 12.5 mph 20.7 mph 91 % 0.00 in
18:55 37.7 °F 35.3 °F 29.28 in North 11.5 mph 17.3 mph 91 % 0.00 in
19:00 37.7 °F 35.3 °F 29.28 in NNW 12.1 mph 13.8 mph 91 % 0.00 in
19:05 37.7 °F 35.3 °F 29.28 in NNW 10.7 mph 19.6 mph 91 % 0.00 in
19:10 37.7 °F 35.3 °F 29.29 in NNW 10.3 mph 21.0 mph 91 % 0.00 in
19:15 37.7 °F 35.3 °F 29.28 in NE 9.9 mph 19.0 mph 91 % 0.00 in
19:20 37.7 °F 35.3 °F 29.29 in NW 9.8 mph 19.0 mph 91 % 0.00 in
19:25 37.8 °F 35.4 °F 29.30 in NNW 11.0 mph 18.4 mph 91 % 0.00 in
19:30 37.9 °F 35.2 °F 29.30 in NNW 8.5 mph 17.3 mph 90 % 0.00 in
19:35 37.9 °F 35.2 °F 29.30 in NNE 13.2 mph 24.2 mph 90 % 0.00 in
19:40 38.0 °F 35.3 °F 29.31 in ENE 9.8 mph 22.0 mph 90 % 0.00 in
19:45 38.0 °F 35.0 °F 29.32 in WNW 9.5 mph 12.7 mph 89 % 0.00 in
19:50 38.1 °F 35.1 °F 29.31 in NNW 11.7 mph 16.1 mph 89 % 0.00 in
19:55 38.2 °F 35.2 °F 29.31 in NW 10.0 mph 20.7 mph 89 % 0.00 in
20:00 38.2 °F 35.0 °F 29.31 in NNW 8.7 mph 19.6 mph 88 % 0.00 in
20:05 38.2 °F 35.0 °F 29.31 in NNW 10.3 mph 15.0 mph 88 % 0.00 in
20:10 38.3 °F 35.1 °F 29.32 in NW 10.0 mph 17.3 mph 88 % 0.00 in
20:15 38.2 °F 35.0 °F 29.32 in NW 8.8 mph 20.7 mph 88 % 0.00 in
20:20 38.2 °F 35.0 °F 29.33 in NW 12.6 mph 25.0 mph 88 % 0.00 in
20:25 38.1 °F 34.9 °F 29.33 in North 8.5 mph 15.0 mph 88 % 0.00 in
20:30 38.1 °F 34.9 °F 29.34 in North 11.0 mph 21.9 mph 88 % 0.00 in
20:36 38.1 °F 34.6 °F 29.34 in NNW 12.8 mph 15.0 mph 87 % 0.00 in
20:41 38.1 °F 34.6 °F 29.35 in NNW 10.0 mph 20.0 mph 87 % 0.00 in
20:46 38.1 °F 34.5 °F 29.35 in NNW 9.0 mph 21.0 mph 87 % 0.00 in
20:50 38.0 °F 34.5 °F 29.35 in North 9.7 mph 26.5 mph 87 % 0.00 in
20:56 38.1 °F 34.5 °F 29.35 in North 8.0 mph 17.0 mph 87 % 0.00 in
21:01 38.0 °F 34.5 °F 29.36 in NNW 6.6 mph 13.8 mph 87 % 0.00 in
21:06 37.9 °F 34.4 °F 29.37 in WNW 9.5 mph 19.6 mph 87 % 0.00 in
21:11 37.9 °F 34.4 °F 29.37 in NNW 8.5 mph 15.0 mph 87 % 0.00 in
21:16 37.9 °F 34.4 °F 29.38 in NNE 10.9 mph 20.7 mph 87 % 0.00 in
21:21 38.0 °F 34.5 °F 29.38 in NNW 8.0 mph 13.8 mph 87 % 0.00 in
21:26 38.0 °F 34.2 °F 29.39 in NNE 13.0 mph 19.6 mph 86 % 0.00 in
21:31 38.1 °F 34.3 °F 29.40 in North 10.4 mph 17.3 mph 86 % 0.00 in
21:36 38.2 °F 34.4 °F 29.40 in North 9.5 mph 13.8 mph 86 % 0.00 in
21:41 38.2 °F 34.1 °F 29.40 in North 11.1 mph 20.7 mph 85 % 0.00 in
21:46 38.2 °F 34.1 °F 29.40 in NNW 5.0 mph 11.5 mph 85 % 0.00 in
21:51 38.2 °F 34.1 °F 29.41 in North 6.1 mph 11.5 mph 85 % 0.00 in
21:56 38.1 °F 34.0 °F 29.42 in North 13.2 mph 20.7 mph 85 % 0.00 in
22:01 38.1 °F 34.0 °F 29.42 in NW 7.5 mph 12.0 mph 85 % 0.00 in
22:06 38.1 °F 34.0 °F 29.42 in North 8.0 mph 13.8 mph 85 % 0.00 in
22:11 38.0 °F 33.9 °F 29.43 in NNW 10.0 mph 19.6 mph 85 % 0.00 in
22:16 37.9 °F 34.1 °F 29.42 in NNW 5.4 mph 11.5 mph 86 % 0.00 in
22:21 37.9 °F 33.8 °F 29.43 in North 12.6 mph 26.5 mph 85 % 0.00 in
22:26 37.8 °F 33.7 °F 29.43 in NNE 11.3 mph 19.6 mph 85 % 0.00 in
22:31 37.8 °F 33.7 °F 29.43 in North 6.3 mph 12.7 mph 85 % 0.00 in
22:37 37.7 °F 33.9 °F 29.43 in NNE 10.4 mph 13.8 mph 86 % 0.00 in
22:42 37.7 °F 33.9 °F 29.43 in NNE 8.7 mph 16.1 mph 86 % 0.00 in
22:47 37.7 °F 33.9 °F 29.44 in North 8.2 mph 23.0 mph 86 % 0.00 in
22:52 37.7 °F 33.6 °F 29.44 in North 6.8 mph 25.0 mph 85 % 0.00 in
22:57 37.7 °F 33.6 °F 29.44 in NNE 8.4 mph 17.3 mph 85 % 0.00 in
23:02 37.8 °F 33.7 °F 29.45 in North 6.7 mph 19.6 mph 85 % 0.00 in
23:07 37.7 °F 33.6 °F 29.45 in NNW 8.0 mph 16.1 mph 85 % 0.00 in
23:12 37.7 °F 33.6 °F 29.45 in NW 12.2 mph 17.3 mph 85 % 0.00 in
23:17 37.6 °F 33.5 °F 29.45 in NNE 10.3 mph 20.7 mph 85 % 0.00 in
23:22 37.6 °F 33.5 °F 29.46 in North 10.2 mph 20.7 mph 85 % 0.00 in
23:27 37.6 °F 33.5 °F 29.46 in NNW 9.5 mph 17.3 mph 85 % 0.00 in
23:32 37.6 °F 33.5 °F 29.46 in NNE 11.4 mph 19.6 mph 85 % 0.00 in
23:37 37.6 °F 33.2 °F 29.46 in North 10.9 mph 17.3 mph 84 % 0.00 in
23:42 37.6 °F 33.5 °F 29.46 in NNE 15.3 mph 20.7 mph 85 % 0.00 in
23:47 37.6 °F 33.2 °F 29.47 in NNW 7.5 mph 11.5 mph 84 % 0.00 in
23:52 37.5 °F 33.1 °F 29.46 in NNW 8.5 mph 13.8 mph 84 % 0.00 in
23:57 37.5 °F 33.1 °F 29.47 in NNE 10.5 mph 23.0 mph 84 % 0.00 in
Crab Meadow Weather
Compliments of Weather Underground - 3 mb

Script developed by  Jim McMurry - jmcmurry@mwt.net Adapted for the template by  Wim van der Kuil - Leuven-Template.eu

Recycling: An estimated 80,000,000 Hershey's Kisses are wrapped each day, using enough aluminum foil to cover over 50 acres of space -- that's almost 40 football fields. All that foil is recyclable, but not many people realize it.